Broadleaf, Inc.   Broadleaf, Inc.
Years > Events > Races > Finishers

Finishers

Division Type: All Pro Amateur Separate
Gender: All Male Female
Division:

Bib # Athlete Gender Country City State Club Division Division Place Gender Place Overall Place Finish Time Total Time
368 Slavinski, Dave M US point pleasant NJ BPC Triathlon 40-44 Male 1 of 46 1 of 288 1 of 387 10/13/2013 10:07:33 AM 04:12:33.276
603 Sipos, Jeremy M US Marietta GA No 35-39 Male 1 of 51 2 of 288 2 of 387 10/13/2013 10:09:16 AM 04:19:15.430
228 Jordan, Tyler M US Charlotte NC Roswell Bicycles 25-29 Male 1 of 34 3 of 288 3 of 387 10/13/2013 10:10:17 AM 04:20:16.833
620 Wolfe, Ryan M Fayetteville GA Dynamo Multisport 25-29 Male 2 of 34 4 of 288 4 of 387 10/13/2013 10:10:26 AM 04:20:25.190
239 Chase, Nicholas M US st. petersburg FL Team RWB 25-29 Male 3 of 34 5 of 288 5 of 387 10/13/2013 10:13:35 AM 04:23:34.570
336 Noland, Jon M US Tampa FL NA 35-39 Male 2 of 51 6 of 288 6 of 387 10/13/2013 10:14:41 AM 04:24:40.943
419 Gennari, Bruce M US Brentwood TN Timex Multisport 45-49 Male 1 of 48 7 of 288 7 of 387 10/13/2013 10:20:27 AM 04:25:27.193
218 Long, Seth M US Davenport IA n/a 20-24 Male 1 of 9 8 of 288 8 of 387 10/13/2013 10:17:37 AM 04:27:36.773
580 Hot Shots, . F Relay 1 of 5 1 of 3 1 of 5 10/13/2013 10:27:37 AM 04:27:37.413
246 Donohue, Cory M Fairview NC n/a 25-29 Male 4 of 34 9 of 288 9 of 387 10/13/2013 10:20:33 AM 04:30:32.713
287 Dunham, Colin M US Ann Arbor MI E3TS 30-34 Male 1 of 31 10 of 288 10 of 387 10/13/2013 10:20:46 AM 04:30:45.193
364 Cross, Eric M US Alpharetta GA Roswell Bicycles 40-44 Male 2 of 46 11 of 288 11 of 387 10/13/2013 10:25:55 AM 04:30:55.340
379 Hall, David M US Greer SC None 40-44 Male 3 of 46 12 of 288 12 of 387 10/13/2013 10:26:59 AM 04:31:59.353
451 Welch, Kyle M US Sunnyvale CA Silicon Valley Triathlon Club 50-54 Male 1 of 25 13 of 288 13 of 387 10/13/2013 10:27:04 AM 04:32:04.406
585 McCready, Ryan M US Columbus OH Team RWB 30-34 Male 2 of 31 14 of 288 14 of 387 10/13/2013 10:22:36 AM 04:32:35.106
316 Flanigan, Robert M US South Chesterfield VA Central Virginia Endurance 35-39 Male 3 of 51 15 of 288 15 of 387 10/13/2013 10:22:49 AM 04:32:48.986
300 parrish, bo M US nashville TN Timex Multisport Team 35-39 Male 4 of 51 16 of 288 16 of 387 10/13/2013 10:24:03 AM 04:34:02.316
348 Weslock, Rick M US Fort Mill SC Green Lightning 40-44 Male 4 of 46 17 of 288 17 of 387 10/13/2013 10:32:59 AM 04:37:59.466
335 Watson, Nicholas M US Ada MI N/A 35-39 Male 5 of 51 18 of 288 18 of 387 10/13/2013 10:28:11 AM 04:38:10.413
278 Snyder, Blake M US Atlanta GA Atlanta Tri Club 30-34 Male 3 of 31 19 of 288 19 of 387 10/13/2013 10:28:17 AM 04:38:16.273
237 England, dalford M US monroe GA Team Bling Bling 25-29 Male 5 of 34 20 of 288 20 of 387 10/13/2013 10:28:45 AM 04:38:44.120
390 Halphen, Gerry M US Alpharetta GA Dynamo Multisport 45-49 Male 2 of 48 21 of 288 21 of 387 10/13/2013 10:34:44 AM 04:39:44.586
243 Glinski, Tim M US Arlington Heights IL 25-29 Male 6 of 34 22 of 288 22 of 387 10/13/2013 10:29:59 AM 04:39:58.393
314 Cook, Michael M US Richmond VA Richmond Velo Sport 35-39 Male 6 of 51 23 of 288 23 of 387 10/13/2013 10:31:20 AM 04:41:19.196
410 Shellenberger, Todd M US Indianapolis IN Tri Tornadoes 45-49 Male 3 of 48 24 of 288 24 of 387 10/13/2013 10:36:24 AM 04:41:24.100
132 Richtrova, Jana F US Ipswich MA E3 Training Solutions 30-34 Female 1 of 13 1 of 99 25 of 387 10/13/2013 10:46:34 AM 04:41:34.306
254 Campbell, Knight M US Annapolis MD Annapolis Triathlon Club 25-29 Male 7 of 34 25 of 288 26 of 387 10/13/2013 10:31:47 AM 04:41:46.820
623 Souza, Tiago M kennesaw GA depaula racing 30-34 Male 4 of 31 26 of 288 27 of 387 10/13/2013 10:32:34 AM 04:42:33.963
388 Lips, Stephan M US Austin TX n/a 45-49 Male 4 of 48 27 of 288 28 of 387 10/13/2013 10:37:48 AM 04:42:48.300
611 Kim, Albert M US Arlington VA N/A 35-39 Male 7 of 51 28 of 288 29 of 387 10/13/2013 10:32:53 AM 04:42:52.973
372 Berg, Olov M USA Chadds Ford PA Philadelphia Triathlon Club 40-44 Male 5 of 46 29 of 288 30 of 387 10/13/2013 10:40:05 AM 04:45:05.590
343 Ward, Adam M US Richfield WI adubclub 40-44 Male 6 of 46 30 of 288 31 of 387 10/13/2013 10:40:52 AM 04:45:52.773
473 Green, Frank M US Miami FL none 55-59 Male 1 of 16 31 of 288 32 of 387 10/13/2013 10:46:15 AM 04:46:15.676
400 Eid, Stephen M US Wilmington DE FeXY 45-49 Male 5 of 48 32 of 288 33 of 387 10/13/2013 10:41:19 AM 04:46:19.073
365 King, JT M US Atlanta GA Endurance Concepts 40-44 Male 7 of 46 33 of 288 34 of 387 10/13/2013 10:41:33 AM 04:46:33.606
311 Heiser, Adam M US Atlanta GA None 35-39 Male 8 of 51 34 of 288 35 of 387 10/13/2013 10:36:40 AM 04:46:39.753
480 Zangmeister, Jason M fairview park OH snakebite racing 25-29 Male 8 of 34 35 of 288 36 of 387 10/13/2013 10:36:47 AM 04:46:46.436
284 Honicker, Michael M US Sterling VA Cadence 30-34 Male 5 of 31 36 of 288 37 of 387 10/13/2013 10:36:48 AM 04:46:47.533
398 Liou, Chris M US Cupertino CA Wattie Ink 45-49 Male 6 of 48 37 of 288 38 of 387 10/13/2013 10:41:59 AM 04:46:59.233
214 Ray, Jared M US Athens GA University of Georgia Triathlon Club 20-24 Male 2 of 9 38 of 288 39 of 387 10/13/2013 10:37:29 AM 04:47:28.956
360 Liou, Derek M US Cupertino CA Silicon Valley Triathlon Club 40-44 Male 8 of 46 39 of 288 40 of 387 10/13/2013 10:42:32 AM 04:47:32.816
245 Reis, Steven M US Johnson City TN N/A 25-29 Male 9 of 34 40 of 288 41 of 387 10/13/2013 10:38:00 AM 04:47:59.013
344 Rapaport, Darren M US Herndon VA MVA Racing 40-44 Male 9 of 46 41 of 288 42 of 387 10/13/2013 10:45:09 AM 04:50:09.776
515 Angel, Jason M Glen Allen VA Richmond Velo Sports Clydesdale 40+ 1 of 4 42 of 288 43 of 387 10/13/2013 10:51:24 AM 04:51:24.193
340 Werner, Joseph M US Wauconda IL 40-44 Male 10 of 46 43 of 288 44 of 387 10/13/2013 10:46:42 AM 04:51:42.916
232 Harding, David M US Pooler GA none 25-29 Male 10 of 34 44 of 288 45 of 387 10/13/2013 10:41:44 AM 04:51:43.476
371 Markiewicz, Jay M US Midlothian VA Endorphin Fitness 40-44 Male 11 of 46 45 of 288 46 of 387 10/13/2013 10:47:06 AM 04:52:06.200
382 McClaine, Jeffrey M US Bloomington IN 40-44 Male 12 of 46 46 of 288 47 of 387 10/13/2013 10:47:42 AM 04:52:42.090
397 Long, Griff M US RIDGEWOOD NJ 45-49 Male 7 of 48 47 of 288 48 of 387 10/13/2013 10:48:43 AM 04:53:43.566
325 Johnson, Jonathan M US Knoxville TN Rocky Top Triathalon 35-39 Male 9 of 51 48 of 288 49 of 387 10/13/2013 10:44:23 AM 04:54:22.183
593 Isakov, Jerome M US new york NY trihardernyc 35-39 Male 10 of 51 49 of 288 50 of 387 10/13/2013 10:44:45 AM 04:54:44.763
296 Fiegel, Brent M US Buffalo IA N.A 35-39 Male 11 of 51 50 of 288 51 of 387 10/13/2013 10:44:55 AM 04:54:54.286
166 Wickard, Chris F US Crown Point IN NWI Tri 40-44 Female 1 of 21 2 of 99 52 of 387 10/13/2013 11:00:06 AM 04:55:06.033
266 Sierra, Sebring M US Tampa FL NONE!!! 30-34 Male 6 of 31 51 of 288 53 of 387 10/13/2013 10:45:14 AM 04:55:13.553
442 Galloway, Jeff M US Hampton GA none 50-54 Male 2 of 25 52 of 288 54 of 387 10/13/2013 10:50:22 AM 04:55:22.170
495 Orendorff, Michael M US Pueblo CO SOCO-T2 60-64 Male 1 of 10 53 of 288 55 of 387 10/13/2013 10:55:55 AM 04:55:55.120
608 Sipos, Elaine F US Marietta GA NA 40-44 Female 2 of 21 3 of 99 56 of 387 10/13/2013 11:01:19 AM 04:56:19.806
628 Cardona, Sam M US Bronx NY TRI Latino 40-44 Male 13 of 46 54 of 288 57 of 387 10/13/2013 10:51:52 AM 04:56:52.750
272 Powell, Gordon M US Lilburn GA NA 30-34 Male 7 of 31 55 of 288 58 of 387 10/13/2013 10:47:09 AM 04:57:08.773
234 Walton-Cale, Thomas M US Richmond VA Endorphin Fitness 25-29 Male 11 of 34 56 of 288 59 of 387 10/13/2013 10:47:26 AM 04:57:25.846
126 Brown, Melanie F US Arlington VA Team FeXY 30-34 Female 2 of 13 4 of 99 60 of 387 10/13/2013 11:03:05 AM 04:58:05.696
326 Miles, John M US Greer SC none 35-39 Male 12 of 51 57 of 288 61 of 387 10/13/2013 10:48:11 AM 04:58:10.153
369 Van Evera, Andy M US Greer SC none 40-44 Male 14 of 46 58 of 288 62 of 387 10/13/2013 10:54:02 AM 04:59:02.276
290 Bazett, Kimio M US Sacramento CA None 35-39 Male 13 of 51 59 of 288 63 of 387 10/13/2013 10:49:18 AM 04:59:17.126
391 Miller, Art M Spring Lake NC None 45-49 Male 8 of 48 60 of 288 64 of 387 10/13/2013 10:54:30 AM 04:59:30.016
227 Ford, Jeffrey M Bluffton SC Hilton Head Triathlon 25-29 Male 12 of 34 61 of 288 65 of 387 10/13/2013 10:49:33 AM 04:59:32.476
601 Bene, George M US Greensboro NC Rufus Racing 40-44 Male 15 of 46 62 of 288 66 of 387 10/13/2013 10:54:44 AM 04:59:44.453
588 Balanda, John M Charlotte NC None 45-49 Male 9 of 48 63 of 288 67 of 387 10/13/2013 10:55:07 AM 05:00:07.746
331 VAN NAMEN, JASON M US Atlanta GA N/A 35-39 Male 14 of 51 64 of 288 68 of 387 10/13/2013 10:50:14 AM 05:00:13.396
493 Turek, Peter M US Hampton NJ n/a 60-64 Male 2 of 10 65 of 288 69 of 387 10/13/2013 11:00:23 AM 05:00:23.760
429 Pemberton , John M US Knoxville TN NA 45-49 Male 10 of 48 66 of 288 70 of 387 10/13/2013 10:56:14 AM 05:01:14.863
339 Garnier, Jason M US Atlanta GA n/a 35-39 Male 15 of 51 67 of 288 71 of 387 10/13/2013 10:51:28 AM 05:01:27.776
291 Odom, Bradley M US Statesboro GA SBR racing 35-39 Male 16 of 51 68 of 288 72 of 387 10/13/2013 10:52:07 AM 05:02:06.313
584 Tri TTI, . M Relay 2 of 5 1 of 2 2 of 5 10/13/2013 11:02:21 AM 05:02:21.736
175 Younts, JoAnna F US Chapel Hill NC NA 45-49 Female 1 of 15 5 of 99 73 of 387 10/13/2013 11:07:53 AM 05:02:53.593
592 June, Katie F US Roswell GA Alabama Triathletes 20-24 Female 1 of 6 6 of 99 74 of 387 10/13/2013 11:09:32 AM 05:04:32.400
242 Zangmeister, John M fairview park OH _ 55-59 Male 2 of 16 69 of 288 75 of 387 10/13/2013 11:04:54 AM 05:04:54.866
381 Carbone, Douglas M US waterville OH team toledo 40-44 Male 16 of 46 70 of 288 76 of 387 10/13/2013 11:00:46 AM 05:05:46.130
151 Larson, Sara F US Chapel Hill NC TMS-IOS Elite Triathlon Team 35-39 Female 1 of 11 7 of 99 77 of 387 10/13/2013 11:10:48 AM 05:05:48.860
395 Guess, Travis M US Cary NC Inside Out Sports Triathlon Club 45-49 Male 11 of 48 71 of 288 78 of 387 10/13/2013 11:00:56 AM 05:05:56.490
324 Marshall, Wes M US Evans GA TriAugusta 35-39 Male 17 of 51 72 of 288 79 of 387 10/13/2013 10:56:17 AM 05:06:16.373
217 Hogenboom, Eric M US Naperville IL NA 20-24 Male 3 of 9 73 of 288 80 of 387 10/13/2013 10:56:23 AM 05:06:22.650
434 Arendt, Steve M US Longmont CO None 45-49 Male 12 of 48 74 of 288 81 of 387 10/13/2013 11:01:46 AM 05:06:46.093
148 Mayhew, Kari F US morrisville NC none 35-39 Female 2 of 11 8 of 99 82 of 387 10/13/2013 11:11:58 AM 05:06:58.506
586 Martinez, Diego M US Dunwoody GA NA 45-49 Male 13 of 48 75 of 288 83 of 387 10/13/2013 11:02:29 AM 05:07:29.953
285 Carey, Brett M US Cumming GA Ña 30-34 Male 8 of 31 76 of 288 84 of 387 10/13/2013 10:58:09 AM 05:08:08.263
626 Hiller, Denise "Biebs" F US Tabernacle NJ Central Virgina Endurance 40-44 Female 3 of 21 9 of 99 85 of 387 10/13/2013 11:14:02 AM 05:09:02.543
288 Cornick, Jeff M US Ballston Spa NY Saratoga Triathlon Club 30-34 Male 9 of 31 77 of 288 86 of 387 10/13/2013 10:59:35 AM 05:09:34.830
303 Hurt, Jed M US Winston Salem NC Mock Orange 35-39 Male 18 of 51 78 of 288 87 of 387 10/13/2013 10:59:41 AM 05:09:40.020
212 McKenna, Alex M US Leesburg VA 0-19 Male 1 of 2 79 of 288 88 of 387 10/13/2013 10:59:46 AM 05:09:45.383
110 Mertens, Elaina F US Mount Pleasant IA none 25-29 Female 1 of 12 10 of 99 89 of 387 10/13/2013 11:14:46 AM 05:09:46.156
516 Soba, Steven M Hooksett NH 40-44 Male 17 of 46 80 of 288 90 of 387 10/13/2013 11:05:19 AM 05:10:19.350
476 Edge, Pete M US Simpsonville SC Upstate Triathlon Club 55-59 Male 3 of 16 81 of 288 91 of 387 10/13/2013 11:10:39 AM 05:10:39.063
265 Pavlick, William M US Encinitas CA 30-34 Male 10 of 31 82 of 288 92 of 387 10/13/2013 11:00:54 AM 05:10:53.210
627 Modzelewski, Ed M Charlotte NC None 45-49 Male 14 of 48 83 of 288 93 of 387 10/13/2013 11:06:05 AM 05:11:05.000
387 MASSIE, Jason M US Alpharetta GA none 45-49 Male 15 of 48 84 of 288 94 of 387 10/13/2013 11:06:48 AM 05:11:48.026
235 Lyons, Nathan M US Issaquah WA TN Multisports 25-29 Male 13 of 34 85 of 288 95 of 387 10/13/2013 11:02:08 AM 05:12:07.150
134 Bryan, Julia F US Honolulu HI US Army Tri Club 30-34 Female 3 of 13 11 of 99 96 of 387 10/13/2013 11:17:20 AM 05:12:20.000
156 ruge, erica F US rhinebeck NY Team BIkeway.com 40-44 Female 4 of 21 12 of 99 97 of 387 10/13/2013 11:17:24 AM 05:12:24.523
268 Jones, Andy M US Knoxville TN RX Endurance 30-34 Male 11 of 31 86 of 288 98 of 387 10/13/2013 11:03:11 AM 05:13:10.823
208 Colville, Katie F Marietta GA University of Georgia Triathlon Club 20-24 Female 2 of 6 13 of 99 99 of 387 10/13/2013 11:18:36 AM 05:13:36.393
460 Crouch, Tim M US Atlanta GA None 50-54 Male 3 of 25 87 of 288 100 of 387 10/13/2013 11:08:56 AM 05:13:56.070
464 Sajonia, Blake M US Germantown MD N/A 50-54 Male 4 of 25 88 of 288 101 of 387 10/13/2013 11:07:14 AM 05:14:14.910
396 Casey, Sean M US Atlantic Highlands NJ BPC Triathlon 45-49 Male 16 of 48 89 of 288 102 of 387 10/13/2013 11:09:34 AM 05:14:34.046
353 Fraedrich, Brad M US Landrum SC Malone Coaching 40-44 Male 18 of 46 90 of 288 103 of 387 10/13/2013 11:09:34 AM 05:14:34.633
270 Wells, Adam M US Indianapolis IN adamwellstriathlon.com 30-34 Male 12 of 31 91 of 288 104 of 387 10/13/2013 11:04:38 AM 05:14:37.826
295 Cummings, Steven M US Atlanta GA Peachtree Tri Club 35-39 Male 19 of 51 92 of 288 105 of 387 10/13/2013 11:04:52 AM 05:14:51.830
407 Giannetti, Joe M US East Longmeadow MA cyclonauts 45-49 Male 17 of 48 93 of 288 106 of 387 10/13/2013 11:10:00 AM 05:15:00.166
183 Ford, Susan F US Cookeville TN 45-49 Female 2 of 15 14 of 99 107 of 387 10/13/2013 11:20:13 AM 05:15:13.190
436 Corti, Stephan M US westlake village CA conejo valley triathlon club 45-49 Male 18 of 48 94 of 288 108 of 387 10/13/2013 11:10:19 AM 05:15:19.373
600 Grant, Tyler M US Charlottesville VA UVA Triathlon Team 20-24 Male 4 of 9 95 of 288 109 of 387 10/13/2013 11:05:25 AM 05:15:24.000
244 Schroeder, Christopher M US Chicago IL n/a 25-29 Male 14 of 34 96 of 288 110 of 387 10/13/2013 11:05:44 AM 05:15:43.750
215 Berger, Michael M Atlanta GA N/A 55-59 Male 4 of 16 97 of 288 111 of 387 10/13/2013 11:16:05 AM 05:16:05.753
105 Anderson, Jessica F US Miami FL Wolfpack Tri 20-24 Female 3 of 6 15 of 99 112 of 387 10/13/2013 11:21:26 AM 05:16:26.123
269 Wesley, Morgan M GB Oxford Intl State None 30-34 Male 13 of 31 98 of 288 113 of 387 10/13/2013 11:06:54 AM 05:16:53.503
619 Johnson, Chris M US Sandy Springs GA Endurance Concepts 35-39 Male 20 of 51 99 of 288 114 of 387 10/13/2013 11:07:05 AM 05:17:04.516
273 Barrett, Tim M US Birmingham AL vulcantri 30-34 Male 14 of 31 100 of 288 115 of 387 10/13/2013 11:07:20 AM 05:17:19.120
370 Ramaley, Ken M US Fort Mill SC 40-44 Male 19 of 46 101 of 288 116 of 387 10/13/2013 11:12:47 AM 05:17:47.203
223 Balfour, Robert M US Atlanta GA N/A 20-24 Male 5 of 9 102 of 288 117 of 387 10/13/2013 11:07:50 AM 05:17:49.870
359 Merz, Matthew M US San Jose CA 40-44 Male 20 of 46 103 of 288 118 of 387 10/13/2013 11:12:50 AM 05:17:50.653
318 Solis, Ricardo M US Earlysville VA Endorphin Fitness 35-39 Male 21 of 51 104 of 288 119 of 387 10/13/2013 11:08:40 AM 05:18:39.253
262 Greenlee, Michael M US Johnson City TN Hampton Trails Bicycle Shop 30-34 Male 15 of 31 105 of 288 120 of 387 10/13/2013 11:08:58 AM 05:18:57.406
302 Gambrell, Jamie M US Atlanta GA None 35-39 Male 22 of 51 106 of 288 121 of 387 10/13/2013 11:09:48 AM 05:19:47.430
597 Bussjaeger, Steve M US Mustang OK TRI-OKC 60-64 Male 3 of 10 107 of 288 122 of 387 10/13/2013 11:20:20 AM 05:20:20.456
420 Koontz, Ken M US Roswell GA None 45-49 Male 19 of 48 108 of 288 123 of 387 10/13/2013 11:15:23 AM 05:20:23.706
283 Scott, Christopher M US Linthicum MD None 30-34 Male 16 of 31 109 of 288 124 of 387 10/13/2013 11:10:56 AM 05:20:55.283
449 Branham, Ron M Panama City Beach FL Hammer down 50-54 Male 5 of 25 110 of 288 125 of 387 10/13/2013 11:16:00 AM 05:21:00.193
275 Perham, Jeff M US San Diego CA na 30-34 Male 17 of 31 111 of 288 126 of 387 10/13/2013 11:11:04 AM 05:21:03.613
478 EVERSFIELD, SHANE M US Ithaca NY Ithaca Triathlon Club 55-59 Male 5 of 16 112 of 288 127 of 387 10/13/2013 11:21:38 AM 05:21:38.426
140 Smith, Carrie F US Decatur GA Atlanta Triathlon Club 35-39 Female 3 of 11 16 of 99 128 of 387 10/13/2013 11:27:17 AM 05:22:17.396
599 Leech, Nate M US Greenville SC I said no 30-34 Male 18 of 31 113 of 288 129 of 387 10/13/2013 11:12:36 AM 05:22:35.110
219 Geisler, Jacob M US Tampa FL N/A 20-24 Male 6 of 9 114 of 288 130 of 387 10/13/2013 11:12:42 AM 05:22:41.996
581 hotmomstri, . F US Apex NC none Relay 3 of 5 2 of 3 3 of 5 10/13/2013 11:23:18 AM 05:23:18.780
338 Gordon, Marcus M US Dunwoody GA The Sport Factory 35-39 Male 23 of 51 115 of 288 131 of 387 10/13/2013 11:13:33 AM 05:23:32.880
304 Lang, Christapher M US Yorktown VA none 35-39 Male 24 of 51 116 of 288 132 of 387 10/13/2013 11:13:38 AM 05:23:37.960
222 Antoon, Daniel M US Beavercreek OH Team Jeni's 20-24 Male 7 of 9 117 of 288 133 of 387 10/13/2013 11:13:44 AM 05:23:43.610
354 Young, Jayson M US Simpsonville SC none 40-44 Male 21 of 46 118 of 288 134 of 387 10/13/2013 11:18:46 AM 05:23:46.780
329 Rassat, Travis M US Noblesville IN 35-39 Male 25 of 51 119 of 288 135 of 387 10/13/2013 11:14:09 AM 05:24:08.160
297 rice, mike M US shepherdsville KY n/a 35-39 Male 26 of 51 120 of 288 136 of 387 10/13/2013 11:14:18 AM 05:24:17.190
459 Butz, Clarence M US Berkeley CA na 50-54 Male 6 of 25 121 of 288 137 of 387 10/13/2013 11:19:33 AM 05:24:33.193
356 Russell, Mark M US Boise ID Boise Y Tri Club 40-44 Male 22 of 46 122 of 288 138 of 387 10/13/2013 11:20:04 AM 05:25:04.816
415 Lennon, Cale M US Decatur GA Atlanta Triathlon Club 45-49 Male 20 of 48 123 of 288 139 of 387 10/13/2013 11:20:21 AM 05:25:21.423
306 Michenfelder, Carleton M US Simpsonville SC N/A 35-39 Male 27 of 51 124 of 288 140 of 387 10/13/2013 11:15:30 AM 05:25:29.416
189 Clark, Jennifer F US ROCHEPORT MO columbia multisport club 50-54 Female 1 of 7 17 of 99 141 of 387 10/13/2013 11:31:02 AM 05:26:02.113
470 Hendricks, Steven M US Newnan GA None 50-54 Male 7 of 25 125 of 288 142 of 387 10/13/2013 11:21:08 AM 05:26:08.960
393 Holliday, Winston M US Columbia SC None 45-49 Male 21 of 48 126 of 288 143 of 387 10/13/2013 11:21:21 AM 05:26:21.883
121 Hankins, Jen F US Kirkwood MO Swim Bike Run St. Louis 25-29 Female 2 of 12 18 of 99 144 of 387 10/13/2013 11:31:31 AM 05:26:31.840
248 Rutz, Dan M US Atlanta GA NONE 25-29 Male 15 of 34 127 of 288 145 of 387 10/13/2013 11:16:56 AM 05:26:55.066
481 Venable, Dave M US Yorktown VA None 55-59 Male 6 of 16 128 of 288 146 of 387 10/13/2013 11:28:20 AM 05:28:20.136
152 Licht, Wendy F US waterville OH team toledo 35-39 Female 4 of 11 19 of 99 147 of 387 10/13/2013 11:33:22 AM 05:28:22.413
181 Oshea, Heidi F US Decatur GA Athletic Training Services 45-49 Female 3 of 15 20 of 99 148 of 387 10/13/2013 11:33:38 AM 05:28:38.813
298 Mitchell, Scott M US Mableton GA None 35-39 Male 28 of 51 129 of 288 149 of 387 10/13/2013 11:19:24 AM 05:29:23.573
622 RATIER, JOHN M Garden City SC Fuel Belt Racing 55-59 Male 7 of 16 130 of 288 150 of 387 10/13/2013 11:30:11 AM 05:30:11.726
160 Slavinski, CARRIE F US point pleasant NJ BPC Triathlon 40-44 Female 5 of 21 21 of 99 151 of 387 10/13/2013 11:36:53 AM 05:31:53.156
224 Stephens, Joshua M US Jacksonville FL University of North Florida Triathlon 25-29 Male 16 of 34 131 of 288 152 of 387 10/13/2013 11:21:57 AM 05:31:56.006
455 Samuel, Curtiss M US Marietta GA None 50-54 Male 8 of 25 132 of 288 153 of 387 10/13/2013 11:27:09 AM 05:32:09.480
625 Taylor, Chris M US Simpsonville SC usa triathlon member 45-49 Male 22 of 48 133 of 288 154 of 387 10/13/2013 11:27:31 AM 05:32:31.090
226 Caso, Michael M US Anderson SC NA 25-29 Male 17 of 34 134 of 288 155 of 387 10/13/2013 11:23:00 AM 05:32:59.666
102 Killian, McKenzie F US Bluff City TN none 0-19 Female 1 of 3 22 of 99 156 of 387 10/13/2013 11:38:33 AM 05:33:33.190
386 Church, Charles M US Greenville SC Duh, none. 40-44 Male 23 of 46 135 of 288 157 of 387 10/13/2013 11:28:36 AM 05:33:36.573
124 Bishop, Stefanie F US New York NY None 30-34 Female 4 of 13 23 of 99 158 of 387 10/13/2013 11:38:56 AM 05:33:56.600
468 Morgan, Rex M US Simpsonville SC NA 50-54 Male 9 of 25 136 of 288 159 of 387 10/13/2013 11:29:26 AM 05:34:26.376
362 Norton, Brian M US Simpsonville SC None 40-44 Male 24 of 46 137 of 288 160 of 387 10/13/2013 11:29:28 AM 05:34:28.330
167 Langton, Joanne F US Morristown TN Rocky Top Multisport 40-44 Female 6 of 21 24 of 99 161 of 387 10/13/2013 11:39:29 AM 05:34:29.030
207 Halenkamp, Ann F US St. Louis MO NA 55-59 Female 1 of 9 25 of 99 162 of 387 10/13/2013 11:39:34 AM 05:34:34.140
187 Pierpont, Beth F US Charlotte NC None 45-49 Female 4 of 15 26 of 99 163 of 387 10/13/2013 11:39:44 AM 05:34:44.610
613 joignant, christophe M US atlanta GA none 45-49 Male 23 of 48 138 of 288 164 of 387 10/13/2013 11:30:00 AM 05:35:00.306
122 Olson, Lauren F US Mesa AZ Team Garmin 30-34 Female 5 of 13 27 of 99 165 of 387 10/13/2013 11:40:04 AM 05:35:04.570
487 SMITH, GARY M US Florham Park NJ BPC Triathlon 55-59 Male 8 of 16 139 of 288 166 of 387 10/13/2013 11:35:07 AM 05:35:07.356
230 Rose, Forrest M US Marietta GA NA 25-29 Male 18 of 34 140 of 288 167 of 387 10/13/2013 11:25:11 AM 05:35:10.673
589 Airheart, Susan F US Charlotte NC Thriple Threat Racing 55-59 Female 2 of 9 28 of 99 168 of 387 10/13/2013 11:40:14 AM 05:35:14.746
267 Pistolis, Peter M US Greenville SC None 30-34 Male 19 of 31 141 of 288 169 of 387 10/13/2013 11:25:19 AM 05:35:18.713
323 Kongruengkit, Jip M US Charlotte NC n/a 35-39 Male 29 of 51 142 of 288 170 of 387 10/13/2013 11:25:24 AM 05:35:23.563
322 Bearden, Bryan M US Cumming GA Reality Bikes Tri Team 35-39 Male 30 of 51 143 of 288 171 of 387 10/13/2013 11:25:59 AM 05:35:58.103
213 Anderson, Nick M US Savannah GA none 0-19 Male 2 of 2 144 of 288 172 of 387 10/13/2013 11:26:23 AM 05:36:22.876
104 Wallis , Elise F US Marietta GA N/A 20-24 Female 4 of 6 29 of 99 173 of 387 10/13/2013 11:42:32 AM 05:37:32.666
185 Parker, Hayley F US Suwanee GA USAT 45-49 Female 5 of 15 30 of 99 174 of 387 10/13/2013 11:42:42 AM 05:37:42.830
463 Schwarztrauber, Mark M US Mt Pleasant SC Summerville 50-54 Male 10 of 25 145 of 288 175 of 387 10/13/2013 11:33:19 AM 05:38:19.700
113 Stein, Marlyce F US Seattle WA TN Multisport 25-29 Female 3 of 12 31 of 99 176 of 387 10/13/2013 11:43:33 AM 05:38:33.896
408 Sia, Rommel M US Morristown TN RTMSC 45-49 Male 24 of 48 146 of 288 177 of 387 10/13/2013 11:33:57 AM 05:38:57.606
373 Rosebrook, Andrew M US Royersford PA Team Rev3 40-44 Male 25 of 46 147 of 288 178 of 387 10/13/2013 11:34:33 AM 05:39:33.086
474 Redfern, Dan M US Poway CA Tri Club of San Diego 55-59 Male 9 of 16 148 of 288 179 of 387 10/13/2013 11:39:45 AM 05:39:45.420
367 Dekock, Christopher M marietta GA Free Flite 40-44 Male 26 of 46 149 of 288 180 of 387 10/13/2013 11:35:41 AM 05:40:41.136
418 Dierkes, Chris M US Atlanta GA no 45-49 Male 25 of 48 150 of 288 181 of 387 10/13/2013 11:35:50 AM 05:40:50.023
448 Lecture, Ray M US Gainesville GA None 50-54 Male 11 of 25 151 of 288 182 of 387 10/13/2013 11:35:51 AM 05:40:51.873
289 Roszel, Jamie M US Simpsonville SC none 30-34 Male 20 of 31 152 of 288 183 of 387 10/13/2013 11:32:35 AM 05:42:34.390
461 Zerressen, Mike M US Brevard NC None 50-54 Male 12 of 25 153 of 288 184 of 387 10/13/2013 11:37:56 AM 05:42:56.463
315 Burl, Chris M US Knoxville TN Rocky Top MultiSport Club 35-39 Male 31 of 51 154 of 288 185 of 387 10/13/2013 11:33:45 AM 05:43:44.303
424 Robinette, Glenn M US Lexington SC n/a 45-49 Male 26 of 48 155 of 288 186 of 387 10/13/2013 11:38:53 AM 05:43:53.703
477 Cassimatis, John M US Hillsborough NJ 55-59 Male 10 of 16 156 of 288 187 of 387 10/13/2013 11:44:32 AM 05:44:32.893
411 murray, casey M US glen allen VA Endorphin Fitness 45-49 Male 27 of 48 157 of 288 188 of 387 10/13/2013 11:39:33 AM 05:44:33.296
502 strait, john M US new port richey FL total fitness 65-69 Male 1 of 9 158 of 288 189 of 387 10/13/2013 11:46:36 AM 05:46:36.153
414 Caldwell, John M US Richmond VA Endorphin Fitness 45-49 Male 28 of 48 159 of 288 190 of 387 10/13/2013 11:41:40 AM 05:46:40.786
512 Haugland, Blake M Mooresville NC none Clydesdale Under 40 1 of 2 160 of 288 191 of 387 10/13/2013 11:46:43 AM 05:46:43.376
164 Mckendry, Melissa F US virginia beach VA red hammer racing 40-44 Female 7 of 21 32 of 99 192 of 387 10/13/2013 11:52:34 AM 05:47:34.833
602 Worley, Robert M US Pasadena CA California Triathlon 30-34 Male 21 of 31 161 of 288 193 of 387 10/13/2013 11:37:55 AM 05:47:54.473
456 Dorrill, Jeff M US Dallas TX None 50-54 Male 13 of 25 162 of 288 194 of 387 10/13/2013 11:43:09 AM 05:48:09.823
506 Vaughan, Dale M US Macon GA Big Ring Racing 65-69 Male 2 of 9 163 of 288 195 of 387 10/13/2013 11:48:25 AM 05:48:25.666
128 Boone, Kelly F US Greenville SC USA Triathlon 30-34 Female 6 of 13 33 of 99 196 of 387 10/13/2013 11:53:41 AM 05:48:41.043
127 Sawyer, Alison F Atlanta GA None 30-34 Female 7 of 13 34 of 99 197 of 387 10/13/2013 11:54:08 AM 05:49:08.556
417 Mulcahy, John M US Porter Ranch CA MultiSport Ministries 45-49 Male 29 of 48 164 of 288 198 of 387 10/13/2013 11:44:48 AM 05:49:48.023
454 Gish, Jeff M US Boonsboro MD None 50-54 Male 14 of 25 165 of 288 199 of 387 10/13/2013 11:44:59 AM 05:49:59.006
432 Shortt, Joseph M US Scottsboro AL Scottsboro Tri Sport 45-49 Male 30 of 48 166 of 288 200 of 387 10/13/2013 11:45:57 AM 05:50:57.686
389 Sadler, Kirk M US Mt. Pleasant SC NA 45-49 Male 31 of 48 167 of 288 201 of 387 10/13/2013 11:46:18 AM 05:51:18.996
605 Peck, Steve M US Atlanta GA Nada 55-59 Male 11 of 16 168 of 288 202 of 387 10/13/2013 11:51:22 AM 05:51:22.763
147 Silva, Megan F US Chicago IL Well FIt 35-39 Female 5 of 11 35 of 99 203 of 387 10/13/2013 11:57:40 AM 05:52:40.576
170 Canavan, Nicole F US Atlanta GA none 40-44 Female 8 of 21 36 of 99 204 of 387 10/13/2013 11:58:21 AM 05:53:21.690
317 Fabian, Michael M US Canton GA na 35-39 Male 32 of 51 169 of 288 205 of 387 10/13/2013 11:43:33 AM 05:53:32.623
100 Lee, Sami F US Fresno CA Triathlon Club of Central California (TC3) 0-19 Female 2 of 3 37 of 99 206 of 387 10/13/2013 11:58:41 AM 05:53:41.303
621 Osterberg, Karah F US Garden Prairie IL None 25-29 Female 4 of 12 38 of 99 207 of 387 10/13/2013 12:00:03 PM 05:55:03.633
469 Brannagan, Matthew M CA Belle River ON N/A 50-54 Male 15 of 25 170 of 288 208 of 387 10/13/2013 11:50:16 AM 05:55:16.390
482 Patterson, Wayne M US Scottsboro AL Scottsboro Tri Sport 55-59 Male 12 of 16 171 of 288 209 of 387 10/13/2013 11:55:34 AM 05:55:34.556
178 Oliver, Kyra F US Richmond VA RTC 45-49 Female 6 of 15 39 of 99 210 of 387 10/13/2013 12:00:40 PM 05:55:40.153
292 Peck, Benji M US Nashville TN Excel Triathletes 35-39 Male 33 of 51 172 of 288 211 of 387 10/13/2013 11:45:41 AM 05:55:40.230
143 Vaughan, Trinke F US Atlanta GA none 35-39 Female 6 of 11 40 of 99 212 of 387 10/13/2013 12:00:47 PM 05:55:47.546
157 Briley, Angie F US Indianapolis IN Tri Tornadoes 40-44 Female 9 of 21 41 of 99 213 of 387 10/13/2013 12:00:54 PM 05:55:54.206
514 White, Albert M Lynn Haven FL Hammerdown Multisport Clydesdale 40+ 2 of 4 173 of 288 214 of 387 10/13/2013 11:56:05 AM 05:56:05.040
257 Surber, Justin M US Winston Salem NC None 25-29 Male 19 of 34 174 of 288 215 of 387 10/13/2013 11:46:12 AM 05:56:11.713
108 Wetzel, Allie F US Decatur GA NA 25-29 Female 5 of 12 42 of 99 216 of 387 10/13/2013 12:01:33 PM 05:56:33.596
494 Woolford, Robert M US bloomington IN I am not a member of a Triathlon club 60-64 Male 4 of 10 175 of 288 217 of 387 10/13/2013 11:56:42 AM 05:56:42.933
240 Morse, Benjamin M US Nashville TN N/A 25-29 Male 20 of 34 176 of 288 218 of 387 10/13/2013 11:47:09 AM 05:57:08.253
488 McKee, Robert M US Simpsonville SC TC3 55-59 Male 13 of 16 177 of 288 219 of 387 10/13/2013 11:57:11 AM 05:57:11.316
337 Molyneux, Steve M US Lanoka Harbor NJ BPC Triathlon 35-39 Male 34 of 51 178 of 288 220 of 387 10/13/2013 11:47:15 AM 05:57:14.326
274 donnelly, john M greenville SC n/a 30-34 Male 22 of 31 179 of 288 221 of 387 10/13/2013 12:06:13 PM 05:57:14.676
176 Smith, Elaine F US Plano TX NA 45-49 Female 7 of 15 43 of 99 222 of 387 10/13/2013 12:02:38 PM 05:57:38.906
216 Roofner, Brian M US Mt. Pleasant SC N/A 20-24 Male 8 of 9 180 of 288 223 of 387 10/13/2013 11:48:14 AM 05:58:13.026
624 Gibbons, Garbhan M US Houston TX N/A 35-39 Male 35 of 51 181 of 288 224 of 387 10/13/2013 11:48:26 AM 05:58:25.106
334 Foster, Matt M Nashville TN none 35-39 Male 36 of 51 182 of 288 225 of 387 10/13/2013 11:48:37 AM 05:58:36.240
405 Schaffer, David M US Simpsonvlle SC Upstate Triathlon Club 45-49 Male 32 of 48 183 of 288 226 of 387 10/13/2013 11:53:37 AM 05:58:37.770
203 Deutsch, Elizabeth F US Maplewood NJ MAPSO-TRI 55-59 Female 3 of 9 44 of 99 227 of 387 10/13/2013 12:03:57 PM 05:58:57.650
125 White, Lauren F US Simpsonville SC none 30-34 Female 8 of 13 45 of 99 228 of 387 10/13/2013 12:04:09 PM 05:59:09.763
256 Koskinas, Dean M US Kernersville NC None 25-29 Male 21 of 34 184 of 288 229 of 387 10/13/2013 11:49:13 AM 05:59:12.786
305 Lard, Jared M US Charlotte NC n/a 35-39 Male 37 of 51 185 of 288 230 of 387 10/13/2013 11:49:42 AM 05:59:41.146
188 Williams, Cheryl F Atlanta GA Atlanta Triathlon Club 45-49 Female 8 of 15 46 of 99 231 of 387 10/13/2013 12:04:53 PM 05:59:53.086
378 Mears, Laine M US Anderson SC NA 40-44 Male 27 of 46 186 of 288 232 of 387 10/13/2013 11:55:10 AM 06:00:10.750
229 Alexander, Daniel M US Marshall IL n/a 25-29 Male 22 of 34 187 of 288 233 of 387 10/13/2013 11:50:16 AM 06:00:15.320
472 Heflin, John M US Hendersonville TN Team RWB 55-59 Male 14 of 16 188 of 288 234 of 387 10/13/2013 12:00:29 PM 06:00:29.300
231 Brock, Nathan M US Bellevue OH Multisport Ministries 25-29 Male 23 of 34 189 of 288 235 of 387 10/13/2013 11:50:50 AM 06:00:49.436
352 Schenkenfelder, Brian M US Waddy KY - 40-44 Male 28 of 46 190 of 288 236 of 387 10/13/2013 11:56:00 AM 06:01:00.090
158 Emerle, Rebecca F US Louisville CO NA 40-44 Female 10 of 21 47 of 99 237 of 387 10/13/2013 12:06:21 PM 06:01:21.760
431 glover, monty M US indianapolis IN tri tornadoes 45-49 Male 33 of 48 191 of 288 238 of 387 10/13/2013 11:56:37 AM 06:01:37.753
439 Rogers, Rhett M US Rome GA none 45-49 Male 34 of 48 192 of 288 239 of 387 10/13/2013 11:57:13 AM 06:02:13.296
490 Halsey, Ashley M US Annapolis MD Annapolis Triathlon Club 60-64 Male 5 of 10 193 of 288 240 of 387 10/13/2013 12:02:50 PM 06:02:50.290
233 Wallis, Daniel M US Marietta GA n/a 25-29 Male 24 of 34 194 of 288 241 of 387 10/13/2013 11:52:58 AM 06:02:57.476
308 Pierce, Matthew M US Indianapolis IN Tri Tornados 35-39 Male 38 of 51 195 of 288 242 of 387 10/13/2013 11:53:04 AM 06:03:03.926
467 Dacey, Richard M US Simpsonville SC None 50-54 Male 16 of 25 196 of 288 243 of 387 10/13/2013 11:58:21 AM 06:03:21.723
247 Ruffin, Andrew M US Greenville SC none 25-29 Male 25 of 34 197 of 288 244 of 387 10/13/2013 11:53:40 AM 06:03:39.470
376 Furman, Andrew M US Cookeville TN None 40-44 Male 29 of 46 198 of 288 245 of 387 10/13/2013 11:58:59 AM 06:03:59.560
307 Hopkins, Jason M Matthews NC NA 35-39 Male 39 of 51 199 of 288 246 of 387 10/13/2013 11:54:23 AM 06:04:22.260
258 gallow, michael M marietta GA None 25-29 Male 26 of 34 200 of 288 247 of 387 10/13/2013 11:54:57 AM 06:04:56.223
107 Fratto, Allison F US Durham NC n/a 25-29 Female 6 of 12 48 of 99 248 of 387 10/13/2013 12:10:08 PM 06:05:08.690
440 Holliday, Ben M US Douglasville GA Team EC 45-49 Male 35 of 48 201 of 288 249 of 387 10/13/2013 12:00:40 PM 06:05:40.056
309 Petrosky, James M US Huntersville NC 35-39 Male 40 of 51 202 of 288 250 of 387 10/13/2013 11:55:48 AM 06:05:47.540
500 Bloom, Paul M US Durham NC Duke Triathlon Club 65-69 Male 3 of 9 203 of 288 251 of 387 10/13/2013 12:06:01 PM 06:06:01.676
103 Gilmore, Brittany F US Asheville NC Asheville Tri Club 20-24 Female 5 of 6 49 of 99 252 of 387 10/13/2013 12:11:35 PM 06:06:35.156
590 Dover, Steven M US Taylors SC None 40-44 Male 30 of 46 204 of 288 253 of 387 10/13/2013 12:01:43 PM 06:06:43.846
609 Cragwall, Jamie F US Knoxville TN Rocky Top Multisport Club 35-39 Female 7 of 11 50 of 99 254 of 387 10/13/2013 12:11:47 PM 06:06:47.770
259 Brown, Michael M US Arlington VA n/a 30-34 Male 23 of 31 205 of 288 255 of 387 10/13/2013 11:57:38 AM 06:07:37.273
263 cloukey, craig M US Dalzell SC N/A 30-34 Male 24 of 31 206 of 288 256 of 387 10/13/2013 11:58:09 AM 06:08:08.513
241 Parr, Brendan M US Reading MA NA 25-29 Male 27 of 34 207 of 288 257 of 387 10/13/2013 11:58:22 AM 06:08:21.126
591 Hall, Andy M US Simpsonville SC not a member 35-39 Male 41 of 51 208 of 288 258 of 387 10/13/2013 11:58:47 AM 06:08:46.846
264 Hanson, Chris M US Smyrna TN MidTN Multisport 30-34 Male 25 of 31 209 of 288 259 of 387 10/13/2013 11:58:50 AM 06:08:49.100
444 Moore, Scot M US Orlando FL Team Vortex 50-54 Male 17 of 25 210 of 288 260 of 387 10/13/2013 12:04:20 PM 06:09:20.190
403 Parrott, Max M US Calhoun GA none 45-49 Male 36 of 48 211 of 288 261 of 387 10/13/2013 12:05:40 PM 06:10:40.616
357 Manalili, Cedrick M US Jefferson TN Rocky Top Multisport 40-44 Male 31 of 46 212 of 288 262 of 387 10/13/2013 12:05:41 PM 06:10:41.780
209 Schrock, Sheri F US Cohasset MN Fly Like the Wind 55-59 Female 4 of 9 51 of 99 263 of 387 10/13/2013 12:16:43 PM 06:11:43.333
116 Labrie, Melissa F US Manchester NH QT2 Systems 25-29 Female 7 of 12 52 of 99 264 of 387 10/13/2013 12:16:56 PM 06:11:56.580
180 Logan, Katie F US Knoxville TN NA 45-49 Female 9 of 15 53 of 99 265 of 387 10/13/2013 12:17:27 PM 06:12:27.203
582 Three Miss Fits, . F US Simpsonville SC none Relay 4 of 5 3 of 3 4 of 5 10/13/2013 12:13:39 PM 06:13:39.910
251 Preuss, Phillip M US Taylors SC Ripped 'n Swole 25-29 Male 28 of 34 213 of 288 266 of 387 10/13/2013 12:03:57 PM 06:13:56.226
321 Nixon, William M US EVANS GA TriAugusta 35-39 Male 42 of 51 214 of 288 267 of 387 10/13/2013 12:04:14 PM 06:14:13.676
193 Maier, Meg F US Severna Park MD No Name 50-54 Female 2 of 7 54 of 99 268 of 387 10/13/2013 12:19:34 PM 06:14:34.560
507 Frezza, Marty M US Jupiter FL Tri Running Sports 65-69 Male 4 of 9 215 of 288 269 of 387 10/13/2013 12:15:23 PM 06:15:23.206
383 Jones, Hal M US Mount Juliet TN RX Endurance 40-44 Male 32 of 46 216 of 288 270 of 387 10/13/2013 12:11:39 PM 06:16:39.593
604 Douglas, Chad M US Marietta GA None 30-34 Male 26 of 31 217 of 288 271 of 387 10/13/2013 12:07:33 PM 06:17:32.276
201 Malliet-Nowak, Julie F US Mount Horeb WI none 55-59 Female 5 of 9 55 of 99 272 of 387 10/13/2013 12:22:32 PM 06:17:32.293
191 Guthrie, Maura F US Dallas TX 50-54 Female 3 of 7 56 of 99 273 of 387 10/13/2013 12:24:15 PM 06:19:15.790
384 Gardner, Michael M US Anderson SC TTi 40-44 Male 33 of 46 218 of 288 274 of 387 10/13/2013 12:14:21 PM 06:19:21.380
351 weatherford, marty M US winder GA none 40-44 Male 34 of 46 219 of 288 275 of 387 10/13/2013 12:14:28 PM 06:19:28.450
629 Lewis, Scott M Union SC none 40-44 Male 35 of 46 220 of 288 276 of 387 10/13/2013 12:14:52 PM 06:19:52.033
172 Page, Dena F US PCB FL Hammer down 40-44 Female 11 of 21 57 of 99 277 of 387 10/13/2013 12:25:07 PM 06:20:07.393
162 Mears, Kristina F US Anderson SC 40-44 Female 12 of 21 58 of 99 278 of 387 10/13/2013 12:25:17 PM 06:20:17.176
497 Benton, Charles M US Lexington KY Bluegrass Tri Club 60-64 Male 6 of 10 221 of 288 279 of 387 10/13/2013 12:20:23 PM 06:20:23.746
299 Peterson, Joseph M US Cantonment FL N/A 35-39 Male 43 of 51 222 of 288 280 of 387 10/13/2013 12:10:28 PM 06:20:27.513
427 Fikse, Mark M US Smyrna GA No club 45-49 Male 37 of 48 223 of 288 281 of 387 10/13/2013 12:15:42 PM 06:20:42.210
220 Tretsky, Cory M US Rock Hill SC None 20-24 Male 9 of 9 224 of 288 282 of 387 10/13/2013 12:11:01 PM 06:21:00.850
204 Tappen, Mary F US Tallahassee FL 55-59 Female 6 of 9 59 of 99 283 of 387 10/13/2013 12:26:01 PM 06:21:01.320
139 Seyler, Brenda F US Glen Allen VA Endorphin Fitness 35-39 Female 8 of 11 60 of 99 284 of 387 10/13/2013 12:26:32 PM 06:21:32.446
129 Hotaling, Elizabeth F US Greenville SC none 30-34 Female 9 of 13 61 of 99 285 of 387 10/13/2013 12:26:55 PM 06:21:55.946
280 McAtasney, Scott M US saint petersburg FL none 30-34 Male 27 of 31 225 of 288 286 of 387 10/13/2013 12:13:04 PM 06:23:03.670
211 Viviani, Anne F US Arlington VA none 60-64 Female 1 of 2 62 of 99 287 of 387 10/13/2013 12:28:04 PM 06:23:04.813
433 Seligson, Brian M US Savannah GA Brian R. 45-49 Male 38 of 48 226 of 288 288 of 387 10/13/2013 12:18:26 PM 06:23:26.680
517 Jackson, Rodney M US Abingdon VA none Clydesdale 40+ 3 of 4 227 of 288 289 of 387 10/13/2013 12:24:19 PM 06:24:19.376
202 Deutsch, Leslie F US Maplewood NJ MAPSO-TRI 55-59 Female 7 of 9 63 of 99 290 of 387 10/13/2013 12:30:21 PM 06:25:21.496
503 West, Dennis M US BLOOMFIELD MI Fast 65-69 Male 5 of 9 228 of 288 291 of 387 10/13/2013 12:25:35 PM 06:25:35.130
630 Evans, Randall M Hilton Head SC 50-54 Male 18 of 25 229 of 288 292 of 387 10/13/2013 12:20:56 PM 06:25:56.323
332 Garcia, Leonardo M US Newnan GA Ironmex 35-39 Male 44 of 51 230 of 288 293 of 387 10/13/2013 12:16:34 PM 06:26:33.093
425 Henk, Duane M Anderson SC NA 45-49 Male 39 of 48 231 of 288 294 of 387 10/13/2013 12:21:54 PM 06:26:54.060
171 Simpson, Heather F US Indianapolis IN Tri Tornadoes 40-44 Female 13 of 21 64 of 99 295 of 387 10/13/2013 12:33:38 PM 06:28:38.626
118 Fletcher, Adrienne F US Winston-Salem NC n/a 25-29 Female 8 of 12 65 of 99 296 of 387 10/13/2013 12:33:50 PM 06:28:50.533
123 Tauson, Katherine F US Atlanta GA Atlanta Tri Club 30-34 Female 10 of 13 66 of 99 297 of 387 10/13/2013 12:35:05 PM 06:30:05.640
277 McKenzie, Ben M US Atlanta GA Atlanta Tri Club 30-34 Male 28 of 31 232 of 288 298 of 387 10/13/2013 12:20:08 PM 06:30:07.060
144 Bertram, Kathryn F US Monroe GA None 35-39 Female 9 of 11 67 of 99 299 of 387 10/13/2013 12:35:41 PM 06:30:41.530
114 obluck, Shanna F Joliet IL n/a 25-29 Female 9 of 12 68 of 99 300 of 387 10/13/2013 12:36:11 PM 06:31:11.346
286 Sharp, Chris M US Morristown TN Team sharp 30-34 Male 29 of 31 233 of 288 301 of 387 10/13/2013 12:21:32 PM 06:31:31.140
413 van der Reyden, Peter M US Atlanta GA 566016 45-49 Male 40 of 48 234 of 288 302 of 387 10/13/2013 12:26:58 PM 06:31:58.416
499 Viviani, Donn M US arlington VA none 65-69 Male 6 of 9 235 of 288 303 of 387 10/13/2013 12:32:30 PM 06:32:30.146
491 SNELLING, JOHN M US pigeon forge TN None 60-64 Male 7 of 10 236 of 288 304 of 387 10/13/2013 12:32:34 PM 06:32:34.443
447 Galitzin, Joseph M US Peachtree City GA Peachtree City Tri Club 50-54 Male 19 of 25 237 of 288 305 of 387 10/13/2013 12:27:41 PM 06:32:41.533
182 Gagel, Laura F US Sherrills Ford NC Live it Extreme 45-49 Female 10 of 15 69 of 99 306 of 387 10/13/2013 12:41:00 PM 06:36:00.910
475 Fick, Randall M US Norcross GA NA 55-59 Male 15 of 16 238 of 288 307 of 387 10/13/2013 12:36:32 PM 06:36:32.406
610 Zaatar, Nicole F US Atlanta GA Vulcan Tri 25-29 Female 10 of 12 70 of 99 308 of 387 10/13/2013 12:41:40 PM 06:36:40.706
106 Lane, Amanda F US Tupelo MS Wattie Ink 20-24 Female 6 of 6 71 of 99 309 of 387 10/13/2013 12:42:13 PM 06:37:13.566
249 Nilsson, Eric M US Windsor Locks CT Sonic Endurance 25-29 Male 29 of 34 239 of 288 310 of 387 10/13/2013 12:26:08 PM 06:38:07.033
327 stanzione, chris M US anderson SC electric city endurance club 35-39 Male 45 of 51 240 of 288 311 of 387 10/13/2013 12:28:15 PM 06:38:14.790
404 Coleman, Jim M US Harrisburg NC Huntersville-Concord Triathlon Club 45-49 Male 41 of 48 241 of 288 312 of 387 10/13/2013 12:34:20 PM 06:39:20.980
632 DeBoer, Stephanie F 40-44 Female 14 of 21 72 of 99 313 of 387 10/13/2013 12:44:32 PM 06:39:32.503
341 Fanning, Mike M US Greenville SC Blazing Saddles 40-44 Male 36 of 46 242 of 288 314 of 387 10/13/2013 12:34:52 PM 06:39:52.400
130 Juarez, Anna F US Lexington KY 30-34 Female 11 of 13 73 of 99 315 of 387 10/13/2013 12:46:06 PM 06:41:06.270
206 Henson, Mary F US Lexington KY Bluegrass Triathlon Club 55-59 Female 8 of 9 74 of 99 316 of 387 10/13/2013 12:46:06 PM 06:41:06.373
159 Mayberry, Krista F US Greenville SC NA 40-44 Female 15 of 21 75 of 99 317 of 387 10/13/2013 12:46:26 PM 06:41:26.870
452 Williams, Kenneth M US Lawrenceville GA Cornerstone Men 50-54 Male 20 of 25 243 of 288 318 of 387 10/13/2013 12:36:32 PM 06:41:32.340
511 Krogseng, William M US Charlotte NC N/A Clydesdale Under 40 2 of 2 244 of 288 319 of 387 10/13/2013 12:42:38 PM 06:42:38.953
430 Walsh, Timothy M US St. Petersburg FL N/a 45-49 Male 42 of 48 245 of 288 320 of 387 10/13/2013 12:37:57 PM 06:42:57.853
598 Bowler, Joseph M Greenville SC No 60-64 Male 8 of 10 246 of 288 321 of 387 10/13/2013 12:43:27 PM 06:43:27.623
195 Barg, Susan F US Grayslake IL 50-54 Female 4 of 7 76 of 99 322 of 387 10/13/2013 12:48:37 PM 06:43:37.843
634 Horton, Bryan M 25-29 Male 30 of 34 247 of 288 323 of 387 10/13/2013 12:34:17 PM 06:44:16.036
319 Blodzinski, Jason M US Sumter SC N/A 35-39 Male 46 of 51 248 of 288 324 of 387 10/13/2013 12:34:37 PM 06:44:36.906
450 Troy, Matt M US Hoschton GA N/A 50-54 Male 21 of 25 249 of 288 325 of 387 10/13/2013 12:40:28 PM 06:45:28.900
328 Wagoner, Roger M US Taylors SC None 35-39 Male 47 of 51 250 of 288 326 of 387 10/13/2013 12:36:28 PM 06:46:27.240
462 Osenga, Greg M US Charlotte NC NA 50-54 Male 22 of 25 251 of 288 327 of 387 10/13/2013 12:44:59 PM 06:49:59.883
135 Ward, Kendra F US Charlotte NC None 30-34 Female 12 of 13 77 of 99 328 of 387 10/13/2013 12:57:58 PM 06:52:58.180
205 Lockhart, Sue F US Hillsborough NJ 55-59 Female 9 of 9 78 of 99 329 of 387 10/13/2013 12:58:07 PM 06:53:07.613
504 ebert, jim M US Manteo NC Outer Banks Tri CLub 65-69 Male 7 of 9 252 of 288 330 of 387 10/13/2013 12:53:17 PM 06:53:17.406
136 Henderson, Holly F US Roswell GA No Boundaries Multisport 30-34 Female 13 of 13 79 of 99 331 of 387 10/13/2013 12:58:55 PM 06:53:55.113
349 George, Darby M US Canterbury CT USS MISSISSIPPI Endurance Team 40-44 Male 37 of 46 253 of 288 332 of 387 10/13/2013 12:53:10 PM 06:58:10.213
252 Hardy, Josh M US Anderson SC Ripped 'N Swole 25-29 Male 31 of 34 254 of 288 333 of 387 10/13/2013 12:49:56 PM 06:59:55.123
596 Turk, Jesse M US Dawsonville GA N/A 30-34 Male 30 of 31 255 of 288 334 of 387 10/13/2013 12:51:17 PM 07:01:16.586
342 Dale, Jason M US knoxville TN none 40-44 Male 38 of 46 256 of 288 335 of 387 10/13/2013 12:56:40 PM 07:01:40.620
163 Lovelace, Kristi F US jackson GA N/a 40-44 Female 16 of 21 80 of 99 336 of 387 10/13/2013 1:06:47 PM 07:01:47.853
161 Cohen, Jacqueline F US Marietta GA not a member of club 40-44 Female 17 of 21 81 of 99 337 of 387 10/13/2013 1:07:19 PM 07:02:19.490
385 Bailey, Dwayne M US Garner NC N/A 40-44 Male 39 of 46 257 of 288 338 of 387 10/13/2013 12:59:44 PM 07:04:44.536
345 Wallkotter, Oliver M US Fayetteville NC Fayetteville Area Tri-Warriors 40-44 Male 40 of 46 258 of 288 339 of 387 10/13/2013 1:00:55 PM 07:05:55.006
155 Vose, Kim F US Greer SC None 40-44 Female 18 of 21 82 of 99 340 of 387 10/13/2013 1:11:28 PM 07:06:28.546
479 Paris, Sam M US Marietta GA N/A 55-59 Male 16 of 16 259 of 288 341 of 387 10/13/2013 1:07:03 PM 07:07:03.600
612 Kreisel, Bernadette F US Hilton Head Island SC None 45-49 Female 11 of 15 83 of 99 342 of 387 10/13/2013 1:13:03 PM 07:08:03.360
508 Macdonald, John M US St. Louis MO Big Shark 65-69 Male 8 of 9 260 of 288 343 of 387 10/13/2013 1:11:15 PM 07:11:15.730
190 Williams, Amy F US Richmond VA Endorphin Fitness 50-54 Female 5 of 7 84 of 99 344 of 387 10/13/2013 1:19:54 PM 07:14:54.166
145 Lang, Sarah F US Asheville NC not a member 35-39 Female 10 of 11 85 of 99 345 of 387 10/13/2013 1:22:03 PM 07:17:03.556
606 Pro, Lorey F US Vail AZ NA 45-49 Female 12 of 15 86 of 99 346 of 387 10/13/2013 1:22:42 PM 07:17:42.873
366 Munn, Scott M US Peachtree City GA Peachtree City Triathlon Club 40-44 Male 41 of 46 261 of 288 347 of 387 10/13/2013 1:13:16 PM 07:18:16.556
101 Barker, Anna F US Kingsport TN NA 0-19 Female 3 of 3 87 of 99 348 of 387 10/13/2013 1:24:03 PM 07:19:03.960
513 Colquitt, Jason M US Carrollton GA n/a Clydesdale 40+ 4 of 4 262 of 288 349 of 387 10/13/2013 1:20:07 PM 07:20:07.606
197 Cobb, Alice F US Marietta GA Atlanta Triathlon Club 50-54 Female 6 of 7 88 of 99 350 of 387 10/13/2013 1:25:24 PM 07:20:24.653
401 Irmscher, Scott M US Calhoun GA Calhoun Endurance 45-49 Male 43 of 48 263 of 288 351 of 387 10/13/2013 1:16:27 PM 07:21:27.976
492 Gooch, Steve M US Suwanee GA NA 60-64 Male 9 of 10 264 of 288 352 of 387 10/13/2013 1:21:37 PM 07:21:37.096
119 McCullough, Lucy F US Gainesville FL N/A 25-29 Female 11 of 12 89 of 99 353 of 387 10/13/2013 1:27:23 PM 07:22:23.893
437 DEmidio, Bob M US Senoia GA Peachtrrr City Tri Club 45-49 Male 44 of 48 265 of 288 354 of 387 10/13/2013 1:17:43 PM 07:22:43.900
184 Davey, Jeanette F US La Mesa CA Tri Club San Diego 45-49 Female 13 of 15 90 of 99 355 of 387 10/13/2013 1:31:22 PM 07:26:22.280
179 Haag, Susan F US Jacksonville FL Hammerheads 45-49 Female 14 of 15 91 of 99 356 of 387 10/13/2013 1:34:18 PM 07:29:18.566
210 kelleher, valerie F US Atlanta GA MARC 60-64 Female 2 of 2 92 of 99 357 of 387 10/13/2013 1:35:53 PM 07:30:53.116
261 Marsters, Paul M US Asheville NC n/a 30-34 Male 31 of 31 266 of 288 358 of 387 10/13/2013 1:22:03 PM 07:32:02.520
169 Engel, Risa F US Atlanta GA Atlanta Triathlon Club 40-44 Female 19 of 21 93 of 99 359 of 387 10/13/2013 1:46:15 PM 07:41:15.586
377 French, Tyler M US Martinez GA TriAugusta 40-44 Male 42 of 46 267 of 288 360 of 387 10/13/2013 1:36:29 PM 07:41:29.270
115 Smith, Jennifer F US Dacula GA NA 25-29 Female 12 of 12 94 of 99 361 of 387 10/13/2013 1:53:30 PM 07:48:30.676
392 Jordan, Donald M US Saint Petersburg FL St. Pete Mad Dogs 45-49 Male 45 of 48 268 of 288 362 of 387 10/13/2013 1:49:57 PM 07:54:57.816
607 Clarke, Ryan M US Indian Shores FL St. Pete Mad Dogs 35-39 Male 48 of 51 269 of 288 363 of 387 10/13/2013 1:49:44 PM 07:59:43.423
402 Davis, Russell M US Calhoun GA Calhoun Endurance Club 45-49 Male 46 of 48 270 of 288 364 of 387 10/13/2013 1:58:12 PM 08:03:12.173
363 Hanson, Howell M US Grovetown GA N/A 40-44 Male 43 of 46 271 of 288 365 of 387 10/13/2013 2:00:37 PM 08:05:37.733
380 Hoffman, Brian M US Mableton GA Hoffman Tri-inity 40-44 Male 44 of 46 272 of 288 366 of 387 10/13/2013 2:05:03 PM 08:10:03.290
505 Verhoorn, Gary M US Neshanic Station NJ None 65-69 Male 9 of 9 273 of 288 367 of 387 10/13/2013 2:16:31 PM 08:16:31.133
445 Day, Kim M US Sharpsburg GA N/A 50-54 Male 23 of 25 274 of 288 368 of 387 10/13/2013 2:14:02 PM 08:19:02.563
466 Nieman, Doug M US Lawrenceville GA N/A 50-54 Male 24 of 25 275 of 288 369 of 387 10/13/2013 2:15:58 PM 08:20:58.566
149 Carroll, Jennifer F US Huntsville AL Team Rocket Tri Club 35-39 Female 11 of 11 95 of 99 370 of 387 10/13/2013 2:42:49 PM 08:37:49.473
358 Prosser, Richard M US Grove City OH n/a 40-44 Male 45 of 46 276 of 288 371 of 387 10/13/2013 2:51:11 PM 08:56:11.850
250 Edwards, Andrew M US Hixson TN Multisport Ministries 25-29 Male 32 of 34 277 of 288 372 of 387 10/13/2013 2:51:12 PM 09:01:11.510


Broadleaf, Inc.   Broadleaf, Inc.